Time;durP1;ratioP1;P1;durP2;ratioP2;P2;SDS_P1;SDS_P2;PMS_P1;PMS_P2;Temp;Humidity;BMP_temperature;BMP_pressure;BME280_temperature;BME280_humidity;BME280_pressure;Samples;Min_cycle;Max_cycle;Signal;HPM_P1;HPM_P2
2023/04/17 00:01:34;;;;;;;3.50;3.20;;;22.10;60.50;;;;;;222065;1261;22546;-50
2023/04/17 00:06:42;;;;;;;3.70;3.40;;;22.10;60.80;;;;;;222258;1253;24193;-47
2023/04/17 00:11:46;;;;;;;3.50;3.20;;;22.10;60.60;;;;;;222496;1256;24320;-46
2023/04/17 00:16:51;;;;;;;3.70;3.40;;;22.10;60.70;;;;;;222403;1261;22501;-45
2023/04/17 00:21:55;;;;;;;4.20;3.70;;;22.10;61.00;;;;;;222337;1260;22514;-49
2023/04/17 00:27:00;;;;;;;3.80;3.40;;;22.10;61.10;;;;;;222398;1260;22527;-48
2023/04/17 00:32:04;;;;;;;3.70;3.40;;;22.00;60.80;;;;;;222484;1261;23134;-49
2023/04/17 00:37:08;;;;;;;5.40;4.00;;;22.00;61.00;;;;;;222210;1254;23135;-48
2023/04/17 00:42:12;;;;;;;4.00;3.70;;;22.00;60.80;;;;;;222091;1255;24217;-45
2023/04/17 00:47:17;;;;;;;3.50;3.20;;;22.00;60.90;;;;;;222318;1261;22522;-46
2023/04/17 00:52:28;;;;;;;4.00;3.60;;;22.00;60.90;;;;;;222376;1255;22521;-50
2023/04/17 00:57:33;;;;;;;5.20;3.70;;;22.00;61.20;;;;;;222121;1264;22511;-47
2023/04/17 01:02:37;;;;;;;3.90;3.60;;;22.00;60.90;;;;;;222221;1254;22524;-47
2023/04/17 01:07:42;;;;;;;3.30;3.00;;;22.00;61.00;;;;;;222327;1254;24637;-51
2023/04/17 01:12:48;;;;;;;4.50;4.10;;;21.90;60.80;;;;;;222329;1255;22953;-51
2023/04/17 01:17:52;;;;;;;3.70;3.40;;;21.90;60.90;;;;;;222688;1260;24219;-51
2023/04/17 01:22:58;;;;;;;4.70;3.50;;;21.90;60.90;;;;;;222255;1254;25312;-48
2023/04/17 01:28:02;;;;;;;3.80;3.40;;;21.90;61.00;;;;;;222478;1254;24183;-44
2023/04/17 01:33:06;;;;;;;5.60;4.10;;;21.90;61.10;;;;;;222264;1258;24564;-47
2023/04/17 01:38:10;;;;;;;4.00;3.50;;;21.90;61.00;;;;;;222095;1261;22528;-47
2023/04/17 01:43:14;;;;;;;3.90;3.50;;;21.90;61.10;;;;;;222126;1254;25459;-48
2023/04/17 01:48:18;;;;;;;4.00;3.60;;;21.80;61.00;;;;;;222312;1260;22514;-46
2023/04/17 01:53:22;;;;;;;3.40;3.10;;;21.80;61.00;;;;;;222168;1258;25220;-47
2023/04/17 01:58:26;;;;;;;3.90;3.60;;;21.80;61.00;;;;;;222205;1254;22643;-48
2023/04/17 02:03:31;;;;;;;4.00;3.60;;;21.80;60.90;;;;;;222053;1257;22511;-45
2023/04/17 02:08:36;;;;;;;4.60;3.80;;;21.80;61.40;;;;;;222454;1267;22509;-49
2023/04/17 02:13:40;;;;;;;3.80;3.50;;;21.80;60.90;;;;;;222300;1266;22522;-48
2023/04/17 02:18:44;;;;;;;3.90;3.60;;;21.80;61.00;;;;;;222144;1254;22527;-46
2023/04/17 02:23:49;;;;;;;3.30;3.10;;;21.80;61.00;;;;;;222223;1263;22512;-45
2023/04/17 02:28:53;;;;;;;4.20;3.80;;;21.90;61.00;;;;;;222209;1254;24314;-50
2023/04/17 02:33:57;;;;;;;3.70;3.20;;;22.20;60.50;;;;;;222253;1253;25379;-50
2023/04/17 02:39:02;;;;;;;4.50;3.30;;;22.60;59.60;;;;;;222471;1257;22583;-49
2023/04/17 02:44:07;;;;;;;3.50;3.20;;;22.90;58.70;;;;;;222067;1254;22643;-47
2023/04/17 02:49:11;;;;;;;4.70;3.20;;;23.20;58.00;;;;;;222283;1263;23900;-46
2023/04/17 02:54:16;;;;;;;3.30;3.00;;;23.30;57.70;;;;;;222236;1260;22517;-48
2023/04/17 02:59:20;;;;;;;3.50;3.20;;;23.30;57.60;;;;;;222029;1253;22637;-48
2023/04/17 03:04:26;;;;;;;3.50;3.20;;;23.30;57.50;;;;;;222293;1253;22648;-47
2023/04/17 03:09:30;;;;;;;3.30;3.00;;;23.30;57.50;;;;;;222285;1248;24288;-47
2023/04/17 03:14:34;;;;;;;3.90;3.50;;;23.40;57.40;;;;;;222096;1254;22662;-47
2023/04/17 03:19:38;;;;;;;3.60;3.10;;;23.50;57.30;;;;;;222116;1259;22507;-46
2023/04/17 03:24:43;;;;;;;3.10;2.90;;;23.50;57.10;;;;;;222110;1259;22510;-50
2023/04/17 03:29:48;;;;;;;3.80;3.50;;;23.60;57.40;;;;;;222467;1247;22533;-49
2023/04/17 03:34:51;;;;;;;3.10;2.80;;;23.50;57.10;;;;;;222335;1260;22651;-47
2023/04/17 03:39:55;;;;;;;3.60;3.30;;;23.50;57.20;;;;;;222411;1254;22701;-47
2023/04/17 03:45:03;;;;;;;3.60;3.30;;;23.40;57.30;;;;;;222421;1254;22624;-46
2023/04/17 03:50:08;;;;;;;3.80;3.50;;;23.40;57.50;;;;;;222294;1253;24253;-48
2023/04/17 03:55:18;;;;;;;3.80;3.40;;;23.30;57.50;;;;;;222668;1260;24247;-48
2023/04/17 04:00:24;;;;;;;4.00;3.50;;;23.30;57.90;;;;;;222432;1260;25403;-47
2023/04/17 04:05:31;;;;;;;3.10;2.90;;;23.30;58.60;;;;;;222413;1254;24386;-47
2023/04/17 04:10:36;;;;;;;3.90;3.60;;;23.20;58.00;;;;;;222465;1258;24260;-46
2023/04/17 04:15:40;;;;;;;4.30;3.90;;;23.10;58.00;;;;;;222323;1259;24212;-45
2023/04/17 04:20:45;;;;;;;4.20;3.80;;;23.00;58.50;;;;;;222510;1260;22520;-48
2023/04/17 04:25:55;;;;;;;4.30;4.00;;;23.00;58.70;;;;;;222620;1260;22636;-47
2023/04/17 04:31:06;;;;;;;4.00;3.60;;;23.00;58.20;;;;;;222660;1254;23635;-50
2023/04/17 04:36:19;;;;;;;3.80;3.50;;;22.90;58.50;;;;;;222316;1261;24399;-49
2023/04/17 04:41:28;;;;;;;4.50;4.00;;;22.80;58.60;;;;;;222502;1254;22631;-46
2023/04/17 04:46:33;;;;;;;3.90;3.60;;;22.80;58.80;;;;;;222626;1254;25321;-47
2023/04/17 04:51:38;;;;;;;4.70;4.00;;;22.80;58.70;;;;;;222006;1253;24229;-48
2023/04/17 04:56:43;;;;;;;4.20;3.90;;;22.70;58.80;;;;;;222415;1260;22532;-51
2023/04/17 05:01:49;;;;;;;3.90;3.60;;;22.70;59.20;;;;;;222605;1253;22494;-47
2023/04/17 05:06:56;;;;;;;4.70;4.30;;;22.60;58.90;;;;;;222729;1253;22511;-48
2023/04/17 05:12:00;;;;;;;4.30;3.90;;;22.60;59.30;;;;;;222582;1253;23893;-44
2023/04/17 05:17:06;;;;;;;4.00;3.60;;;22.60;59.10;;;;;;222520;1253;22518;-45
2023/04/17 05:22:10;;;;;;;4.20;3.90;;;22.60;59.00;;;;;;222432;1254;25247;-47
2023/04/17 05:27:25;;;;;;;4.50;4.10;;;22.60;59.50;;;;;;222447;1255;25404;-48
2023/04/17 05:32:30;;;;;;;4.20;3.80;;;22.50;59.30;;;;;;222429;1256;22525;-47
2023/04/17 05:37:39;;;;;;;4.00;3.70;;;22.50;59.60;;;;;;222384;1246;22864;-44
2023/04/17 05:42:43;;;;;;;5.20;4.60;;;22.40;59.50;;;;;;222328;1253;24425;-48
2023/04/17 05:47:48;;;;;;;5.40;4.80;;;22.40;59.60;;;;;;222474;1257;24256;-46
2023/04/17 05:52:52;;;;;;;4.90;4.50;;;22.50;59.50;;;;;;222536;1260;22710;-50
2023/04/17 05:57:58;;;;;;;6.30;4.10;;;22.50;59.70;;;;;;222429;1247;23013;-46
2023/04/17 06:03:10;;;;;;;5.30;4.60;;;22.50;60.30;;;;;;222307;1247;24239;-47
2023/04/17 06:08:16;;;;;;;12.20;4.50;;;22.60;59.90;;;;;;222462;1253;22976;-48
2023/04/17 06:13:22;;;;;;;10.50;4.70;;;22.50;60.60;;;;;;222352;1257;24061;-46
2023/04/17 06:18:26;;;;;;;6.20;4.80;;;22.60;60.20;;;;;;222581;1261;22527;-47
2023/04/17 06:23:30;;;;;;;6.90;4.90;;;22.70;60.40;;;;;;222473;1263;24539;-46
2023/04/17 06:28:34;;;;;;;5.40;4.50;;;22.70;60.30;;;;;;222364;1253;227810;-46
2023/04/17 06:33:40;;;;;;;5.70;5.20;;;22.70;60.20;;;;;;222375;1258;22517;-47
2023/04/17 06:38:44;;;;;;;9.30;4.70;;;22.50;61.20;;;;;;222493;1253;22544;-44
2023/04/17 06:43:49;;;;;;;12.60;4.70;;;22.60;60.80;;;;;;222238;1260;22516;-49
2023/04/17 06:48:58;;;;;;;8.60;5.60;;;22.70;60.70;;;;;;222545;1260;22513;-46
2023/04/17 06:54:08;;;;;;;7.30;5.30;;;22.50;59.20;;;;;;222144;1253;23354;-47
2023/04/17 06:59:12;;;;;;;6.90;5.80;;;22.50;59.50;;;;;;222255;1256;23927;-48
2023/04/17 07:04:16;;;;;;;10.40;5.30;;;22.50;59.10;;;;;;222327;1260;22508;-47
2023/04/17 07:09:21;;;;;;;8.70;6.50;;;22.50;59.20;;;;;;222352;1260;22564;-50
2023/04/17 07:14:26;;;;;;;7.20;6.50;;;22.50;59.00;;;;;;222419;1260;24231;-47
2023/04/17 07:19:30;;;;;;;10.40;6.40;;;22.50;58.40;;;;;;222392;1260;23873;-46
2023/04/17 07:24:33;;;;;;;6.40;5.80;;;22.40;58.60;;;;;;222207;1254;25333;-50
2023/04/17 07:29:38;;;;;;;6.80;5.80;;;22.50;58.70;;;;;;221134;1259;24675;-46
2023/04/17 07:34:42;;;;;;;7.70;6.30;;;22.40;58.80;;;;;;220894;1262;22540;-47
2023/04/17 07:39:51;;;;;;;6.70;6.10;;;22.50;58.50;;;;;;221171;1259;24133;-46
2023/04/17 07:44:56;;;;;;;7.00;6.30;;;22.50;58.50;;;;;;221321;1253;25403;-48
2023/04/17 07:50:00;;;;;;;6.10;5.60;;;22.40;58.80;;;;;;222341;1254;26601;-46
2023/04/17 07:55:06;;;;;;;6.50;5.90;;;22.40;58.80;;;;;;222362;1254;22531;-46
2023/04/17 08:00:13;;;;;;;6.80;6.10;;;22.50;58.90;;;;;;222329;1250;22508;-46
2023/04/17 08:05:17;;;;;;;6.30;5.90;;;22.50;58.80;;;;;;222284;1257;25206;-46
2023/04/17 08:10:21;;;;;;;11.90;7.10;;;22.60;58.30;;;;;;222486;1261;23721;-46
2023/04/17 08:15:26;;;;;;;7.00;6.10;;;22.50;58.50;;;;;;222240;1263;22514;-52
2023/04/17 08:20:30;;;;;;;7.20;5.60;;;22.50;58.50;;;;;;222186;1259;23674;-49
2023/04/17 08:25:34;;;;;;;6.60;6.10;;;22.60;58.30;;;;;;222586;1259;22511;-48
2023/04/17 08:30:38;;;;;;;8.70;6.30;;;22.80;57.70;;;;;;222317;1263;25344;-46
2023/04/17 08:35:42;;;;;;;7.00;6.30;;;22.80;57.90;;;;;;222396;1259;22511;-50
2023/04/17 08:40:50;;;;;;;8.00;7.30;;;22.90;57.80;;;;;;222185;1263;22532;-47
2023/04/17 08:45:55;;;;;;;6.70;6.20;;;22.90;58.30;;;;;;222228;1269;22759;-50
2023/04/17 08:51:00;;;;;;;6.70;6.20;;;22.90;58.50;;;;;;221917;1263;22655;-47
2023/04/17 08:56:05;;;;;;;8.90;8.00;;;22.80;58.90;;;;;;222576;1262;24189;-48
2023/04/17 09:01:17;;;;;;;9.20;7.50;;;22.70;60.20;;;;;;222233;1263;22544;-48
2023/04/17 09:06:21;;;;;;;9.30;7.30;;;22.80;60.20;;;;;;222268;1258;25299;-53
2023/04/17 09:11:26;;;;;;;7.90;7.20;;;22.70;60.70;;;;;;222225;1263;22769;-49
2023/04/17 09:16:30;;;;;;;8.80;8.10;;;22.80;60.50;;;;;;222498;1253;25449;-44
2023/04/17 09:21:34;;;;;;;9.70;8.90;;;22.60;60.30;;;;;;222197;1263;22508;-48
2023/04/17 09:26:38;;;;;;;9.70;8.80;;;22.60;60.90;;;;;;222087;1254;24336;-48
2023/04/17 09:31:43;;;;;;;9.00;8.20;;;22.60;60.80;;;;;;222329;1263;24294;-48
2023/04/17 09:36:53;;;;;;;8.70;8.10;;;22.60;62.10;;;;;;222413;1262;22497;-47
2023/04/17 09:42:05;;;;;;;10.30;8.90;;;22.60;61.50;;;;;;222230;1261;25201;-47
2023/04/17 09:47:08;;;;;;;;;;;22.60;61.50;;;;;;222043;1263;23853;-49
2023/04/17 09:52:13;;;;;;;8.70;8.00;;;22.60;61.90;;;;;;222106;1265;23906;-46
2023/04/17 09:57:17;;;;;;;10.10;9.10;;;22.50;62.00;;;;;;222229;1266;24023;-49
2023/04/17 10:02:22;;;;;;;9.40;8.60;;;22.50;62.00;;;;;;222301;1256;24150;-48
2023/04/17 10:07:26;;;;;;;9.70;8.90;;;22.50;62.30;;;;;;222164;1254;22623;-48
2023/04/17 10:12:30;;;;;;;9.20;8.40;;;22.50;62.60;;;;;;222426;1259;22792;-46
2023/04/17 10:17:37;;;;;;;9.70;8.80;;;22.60;62.10;;;;;;222219;1259;25354;-49
2023/04/17 10:22:42;;;;;;;9.70;8.80;;;22.50;62.40;;;;;;222313;1268;23907;-46
2023/04/17 10:27:48;;;;;;;9.40;8.60;;;22.60;62.50;;;;;;222278;1261;25214;-50
2023/04/17 10:33:11;;;;;;;9.80;8.90;;;22.60;62.30;;;;;;222250;1260;25343;-49
2023/04/17 10:38:29;;;;;;;9.20;8.30;;;22.70;62.30;;;;;;222273;1264;23969;-47
2023/04/17 10:43:33;;;;;;;8.90;8.10;;;22.70;62.30;;;;;;222268;1257;22787;-46
2023/04/17 10:48:49;;;;;;;8.80;8.10;;;22.70;62.30;;;;;;222317;1261;25266;-46
2023/04/17 10:54:00;;;;;;;9.00;8.20;;;22.70;62.10;;;;;;222184;1262;22912;-47
2023/04/17 10:59:12;;;;;;;9.30;8.50;;;22.70;62.50;;;;;;222200;1257;25486;-46
2023/04/17 11:04:30;;;;;;;9.00;8.20;;;22.80;62.30;;;;;;222213;1263;22766;-48
2023/04/17 11:09:35;;;;;;;9.50;8.70;;;22.80;62.20;;;;;;222248;1257;22501;-49
2023/04/17 11:14:41;;;;;;;9.30;8.40;;;22.80;61.50;;;;;;222198;1254;22608;-48
2023/04/17 11:19:46;;;;;;;8.00;7.30;;;22.80;62.10;;;;;;222304;1257;25402;-47
2023/04/17 11:24:51;;;;;;;9.00;8.20;;;22.80;62.50;;;;;;221979;1260;22578;-46
2023/04/17 11:29:55;;;;;;;9.50;8.70;;;22.90;62.20;;;;;;222136;1263;24415;-49
2023/04/17 11:34:59;;;;;;;9.00;8.30;;;22.90;61.80;;;;;;222149;1253;22612;-46
2023/04/17 11:40:09;;;;;;;9.00;8.30;;;22.90;61.90;;;;;;222385;1263;25386;-50
2023/04/17 11:45:18;;;;;;;9.20;8.50;;;22.90;62.30;;;;;;222135;1263;25690;-47
2023/04/17 11:50:27;;;;;;;8.80;8.10;;;22.90;62.00;;;;;;222228;1263;25445;-48
2023/04/17 11:55:33;;;;;;;8.60;7.90;;;22.90;61.80;;;;;;222340;1266;23986;-49
2023/04/17 12:00:38;;;;;;;9.10;8.40;;;23.00;61.60;;;;;;222545;1263;24298;-49
2023/04/17 12:05:42;;;;;;;8.90;8.20;;;23.10;61.40;;;;;;222436;1264;22920;-46
2023/04/17 12:10:46;;;;;;;8.50;7.80;;;23.10;61.90;;;;;;222199;1263;22526;-49
2023/04/17 12:15:50;;;;;;;8.20;7.50;;;23.10;61.40;;;;;;222148;1263;22772;-51
2023/04/17 12:20:54;;;;;;;9.20;8.50;;;23.20;61.40;;;;;;222072;1254;24369;-45
2023/04/17 12:25:59;;;;;;;8.60;7.90;;;23.20;61.40;;;;;;222266;1263;23897;-47
2023/04/17 12:31:04;;;;;;;7.80;7.10;;;23.20;61.40;;;;;;222237;1264;25278;-47
2023/04/17 12:36:08;;;;;;;8.50;7.80;;;23.10;61.60;;;;;;221985;1266;22623;-46
2023/04/17 12:41:12;;;;;;;8.40;7.70;;;23.10;61.70;;;;;;222157;1263;24193;-48
2023/04/17 12:46:16;;;;;;;9.30;8.60;;;23.20;61.40;;;;;;221807;1269;22555;-48
2023/04/17 12:51:20;;;;;;;8.30;7.70;;;23.20;61.70;;;;;;221952;1266;22528;-45
2023/04/17 12:56:24;;;;;;;8.50;7.80;;;23.10;61.70;;;;;;222064;1257;24340;-49
2023/04/17 13:01:29;;;;;;;8.10;7.50;;;23.10;61.40;;;;;;222197;1256;23883;-48
2023/04/17 13:06:33;;;;;;;8.10;7.50;;;23.10;61.40;;;;;;222003;1263;25492;-47
2023/04/17 13:11:37;;;;;;;8.80;8.10;;;23.10;61.50;;;;;;222161;1262;22527;-45
2023/04/17 13:16:42;;;;;;;8.70;7.90;;;23.10;61.50;;;;;;221999;1263;22731;-47
2023/04/17 13:21:46;;;;;;;8.10;7.40;;;23.00;61.60;;;;;;222280;1263;25268;-48
2023/04/17 13:26:51;;;;;;;7.50;6.90;;;23.10;61.50;;;;;;222021;1269;25282;-48
2023/04/17 13:31:55;;;;;;;7.80;7.10;;;23.10;61.60;;;;;;222158;1257;24163;-51
2023/04/17 13:36:59;;;;;;;8.30;7.70;;;23.10;61.40;;;;;;222250;1266;24175;-51
2023/04/17 13:42:04;;;;;;;6.50;6.10;;;23.10;61.50;;;;;;222176;1263;25007;-47
2023/04/17 13:47:08;;;;;;;7.80;7.10;;;23.10;61.40;;;;;;222253;1268;22540;-49
2023/04/17 13:52:12;;;;;;;7.50;7.00;;;23.10;61.70;;;;;;222209;1266;24168;-47
2023/04/17 13:57:19;;;;;;;7.90;7.40;;;23.10;61.00;;;;;;222444;1263;24219;-50
2023/04/17 14:02:23;;;;;;;8.10;7.50;;;23.20;61.00;;;;;;222203;1259;22511;-49
2023/04/17 14:07:28;;;;;;;7.00;6.50;;;23.20;61.20;;;;;;222271;1263;24256;-47
2023/04/17 14:12:33;;;;;;;6.90;6.30;;;23.10;61.00;;;;;;222097;1266;25258;-46
2023/04/17 14:17:41;;;;;;;7.70;7.10;;;23.10;61.00;;;;;;224822;1266;22549;-47
2023/04/17 14:22:46;;;;;;;8.00;7.30;;;23.10;60.90;;;;;;230099;1266;22140;-52
2023/04/17 14:27:51;;;;;;;6.80;6.30;;;23.20;60.70;;;;;;225117;1261;24310;-49
2023/04/17 14:32:55;;;;;;;6.90;6.30;;;23.10;60.30;;;;;;222324;1269;24858;-49
2023/04/17 14:38:03;;;;;;;7.30;6.80;;;23.00;60.60;;;;;;222202;1256;22656;-47
2023/04/17 14:43:08;;;;;;;7.00;6.40;;;23.00;60.80;;;;;;222270;1254;26500;-51
2023/04/17 14:48:12;;;;;;;7.20;6.50;;;22.90;60.90;;;;;;222260;1263;22660;-47
2023/04/17 14:53:16;;;;;;;6.90;6.40;;;22.80;60.90;;;;;;222379;1257;24189;-46
2023/04/17 14:58:24;;;;;;;7.90;7.20;;;22.90;61.00;;;;;;222161;1263;22523;-50
2023/04/17 15:03:28;;;;;;;7.20;6.50;;;22.90;61.00;;;;;;222395;1257;22526;-49
2023/04/17 15:08:32;;;;;;;7.10;6.40;;;22.90;60.60;;;;;;222586;1254;22615;-47
2023/04/17 15:13:38;;;;;;;7.70;7.00;;;22.90;60.90;;;;;;222170;1257;25631;-47
2023/04/17 15:18:43;;;;;;;7.30;6.50;;;22.90;60.70;;;;;;222533;1257;25363;-48
2023/04/17 15:23:50;;;;;;;11.10;7.30;;;22.90;60.70;;;;;;222140;1264;22521;-49
2023/04/17 15:28:59;;;;;;;13.80;12.40;;;22.90;60.40;;;;;;222295;1263;22518;-47
2023/04/17 15:34:05;;;;;;;16.70;13.50;;;23.00;61.40;;;;;;222363;1263;25060;-49
2023/04/17 15:39:09;;;;;;;12.90;11.50;;;23.10;61.40;;;;;;222189;1269;22508;-48
2023/04/17 15:44:14;;;;;;;13.30;11.70;;;23.10;60.60;;;;;;222326;1260;23898;-50
2023/04/17 15:49:18;;;;;;;32.40;29.20;;;23.10;60.10;;;;;;221869;1269;22629;-46
2023/04/17 15:54:23;;;;;;;25.20;22.60;;;23.10;60.00;;;;;;222073;1260;24235;-48
2023/04/17 15:59:27;;;;;;;21.50;19.10;;;23.20;60.30;;;;;;222146;1263;22603;-50
2023/04/17 16:04:31;;;;;;;21.10;18.90;;;23.10;60.10;;;;;;222126;1255;25307;-48
2023/04/17 16:09:35;;;;;;;23.70;19.70;;;23.20;60.00;;;;;;222211;1264;24051;-46
2023/04/17 16:14:39;;;;;;;22.10;19.70;;;23.20;59.60;;;;;;222316;1257;22517;-53
2023/04/17 16:19:43;;;;;;;19.90;17.90;;;23.10;60.10;;;;;;222018;1262;23919;-49
2023/04/17 16:24:47;;;;;;;22.40;18.90;;;23.00;60.20;;;;;;222100;1257;24208;-51
2023/04/17 16:29:52;;;;;;;22.10;17.70;;;23.00;59.80;;;;;;229798;1263;22276;-53
2023/04/17 16:34:56;;;;;;;19.50;17.70;;;23.40;58.70;;;;;;222664;1260;22632;-54
2023/04/17 16:40:03;;;;;;;18.80;16.80;;;23.30;58.70;;;;;;221958;1262;24264;-50
2023/04/17 16:45:08;;;;;;;19.30;17.30;;;23.10;59.70;;;;;;222046;1266;24369;-58
2023/04/17 16:50:12;;;;;;;18.30;16.60;;;23.00;60.00;;;;;;222273;1263;25326;-52
2023/04/17 16:55:17;;;;;;;19.80;15.50;;;22.90;60.20;;;;;;222095;1269;24302;-49
2023/04/17 17:00:22;;;;;;;16.30;14.70;;;22.90;59.70;;;;;;222002;1256;22515;-66
2023/04/17 17:05:26;;;;;;;16.50;14.90;;;22.90;59.70;;;;;;222077;1248;22535;-48
2023/04/17 17:10:30;;;;;;;15.50;14.10;;;23.00;59.70;;;;;;222062;1266;22637;-48
2023/04/17 17:15:34;;;;;;;18.60;15.00;;;23.00;59.60;;;;;;222099;1260;24045;-52
2023/04/17 17:20:39;;;;;;;15.20;13.30;;;22.90;59.70;;;;;;222338;1265;22762;-58
2023/04/17 17:25:43;;;;;;;14.60;12.60;;;22.90;59.70;;;;;;222223;1266;22764;-57
2023/04/17 17:30:49;;;;;;;14.60;12.80;;;22.90;59.70;;;;;;222141;1266;22577;-50
2023/04/17 17:35:54;;;;;;;15.00;13.40;;;23.10;59.40;;;;;;222192;1263;25309;-53
2023/04/17 17:40:58;;;;;;;13.80;12.40;;;23.00;59.50;;;;;;222249;1262;24227;-52
2023/04/17 17:46:03;;;;;;;13.20;11.80;;;23.10;60.00;;;;;;222114;1266;22623;-53
2023/04/17 17:51:08;;;;;;;16.00;11.30;;;23.20;59.00;;;;;;222210;1263;22516;-53
2023/04/17 17:56:14;;;;;;;12.20;11.00;;;23.10;58.90;;;;;;222165;1263;24195;-51
2023/04/17 18:01:22;;;;;;;13.30;11.70;;;23.00;60.00;;;;;;222277;1254;25098;-50
2023/04/17 18:06:27;;;;;;;17.20;11.30;;;23.00;59.80;;;;;;222158;1263;24183;-51
2023/04/17 18:11:32;;;;;;;18.40;11.50;;;22.90;60.80;;;;;;222247;1261;25422;-49
2023/04/17 18:16:38;;;;;;;12.00;10.80;;;22.90;60.50;;;;;;222084;1264;25377;-53
2023/04/17 18:21:44;;;;;;;11.90;10.70;;;23.00;60.30;;;;;;222124;1268;22518;-54
2023/04/17 18:26:51;;;;;;;12.80;10.20;;;23.00;60.20;;;;;;222096;1254;210019;-53
2023/04/17 18:31:59;;;;;;;14.70;10.70;;;23.00;60.20;;;;;;222303;1264;22620;-53
2023/04/17 18:37:05;;;;;;;13.40;11.00;;;22.90;60.50;;;;;;222481;1267;22526;-54
2023/04/17 18:42:11;;;;;;;15.60;11.00;;;22.80;60.50;;;;;;222400;1269;22512;-52
2023/04/17 18:47:28;;;;;;;11.00;9.90;;;22.90;60.60;;;;;;222404;1267;23194;-54
2023/04/17 18:52:40;;;;;;;14.10;10.20;;;22.80;60.50;;;;;;222149;1262;23875;-52
2023/04/17 18:57:52;;;;;;;20.00;10.80;;;22.80;60.50;;;;;;222622;1267;22524;-53
2023/04/17 19:02:58;;;;;;;10.30;9.30;;;22.80;60.50;;;;;;222486;1269;24184;-54
2023/04/17 19:08:10;;;;;;;9.80;8.90;;;22.90;59.60;;;;;;222334;1260;22514;-56
2023/04/17 19:13:17;;;;;;;9.80;8.90;;;22.80;59.50;;;;;;222102;1269;22511;-55
2023/04/17 19:18:23;;;;;;;11.20;8.70;;;22.90;59.60;;;;;;222116;1264;26497;-54
2023/04/17 19:23:30;;;;;;;10.30;9.00;;;22.90;60.40;;;;;;222017;1269;25316;-51
2023/04/17 19:28:35;;;;;;;13.70;9.20;;;22.90;60.50;;;;;;222248;1260;22821;-50
2023/04/17 19:33:40;;;;;;;9.70;8.80;;;22.90;60.50;;;;;;222326;1263;22659;-52
2023/04/17 19:38:46;;;;;;;8.90;8.00;;;22.90;60.20;;;;;;222105;1264;25562;-50
2023/04/17 19:43:52;;;;;;;10.80;8.40;;;22.90;60.00;;;;;;222031;1267;25296;-49
2023/04/17 19:48:58;;;;;;;9.60;8.00;;;23.00;60.00;;;;;;222142;1269;22525;-54
2023/04/17 19:54:04;;;;;;;11.60;8.80;;;23.00;60.10;;;;;;222125;1269;22822;-50
2023/04/17 19:59:12;;;;;;;9.10;8.10;;;23.00;59.90;;;;;;223122;1257;22523;-57
2023/04/17 20:04:18;;;;;;;11.50;8.50;;;23.00;60.10;;;;;;222236;1263;22495;-56
2023/04/17 20:09:24;;;;;;;9.30;7.90;;;23.00;59.50;;;;;;222337;1263;25478;-55
2023/04/17 20:14:30;;;;;;;13.60;8.80;;;22.90;60.00;;;;;;221920;1256;24389;-57
2023/04/17 20:19:38;;;;;;;10.80;8.50;;;22.90;59.60;;;;;;221719;1263;24364;-51
2023/04/17 20:24:43;;;;;;;11.60;7.50;;;22.90;59.90;;;;;;221989;1248;22760;-48
2023/04/17 20:29:49;;;;;;;10.20;7.80;;;22.70;60.00;;;;;;222045;1269;22506;-50
2023/04/17 20:34:54;;;;;;;9.00;7.50;;;22.70;59.10;;;;;;222155;1248;25485;-47
2023/04/17 20:39:59;;;;;;;11.70;8.10;;;22.70;59.40;;;;;;221930;1257;24233;-49
2023/04/17 20:45:06;;;;;;;9.80;7.50;;;22.70;60.50;;;;;;221971;1263;24196;-49
2023/04/17 20:50:12;;;;;;;9.00;8.20;;;22.70;60.40;;;;;;222121;1263;24227;-48
2023/04/17 20:55:18;;;;;;;12.40;8.30;;;22.60;60.10;;;;;;222417;1254;24314;-50
2023/04/17 21:00:23;;;;;;;12.30;8.20;;;22.60;61.60;;;;;;222206;1254;22518;-49
2023/04/17 21:05:27;;;;;;;10.40;8.20;;;22.70;62.90;;;;;;221931;1253;23658;-52
2023/04/17 21:10:31;;;;;;;10.50;7.20;;;22.70;62.20;;;;;;222158;1262;24346;-47
2023/04/17 21:15:35;;;;;;;8.40;7.60;;;22.70;61.40;;;;;;222330;1255;22517;-48
2023/04/17 21:20:40;;;;;;;8.00;6.90;;;22.70;61.90;;;;;;222109;1264;23193;-47
2023/04/17 21:25:44;;;;;;;8.60;7.20;;;22.70;61.70;;;;;;221878;1264;22561;-52
2023/04/17 21:30:49;;;;;;;8.30;7.30;;;22.70;62.10;;;;;;222155;1257;22721;-50
2023/04/17 21:35:53;;;;;;;8.50;7.60;;;22.60;61.80;;;;;;222132;1255;25662;-49
2023/04/17 21:40:57;;;;;;;8.40;7.40;;;22.50;62.10;;;;;;222278;1269;22810;-48
2023/04/17 21:46:02;;;;;;;9.00;7.30;;;22.60;62.00;;;;;;222129;1264;22648;-48
2023/04/17 21:51:06;;;;;;;8.20;6.50;;;22.50;62.30;;;;;;222319;1254;24346;-48
2023/04/17 21:56:10;;;;;;;7.10;6.40;;;22.50;61.90;;;;;;222262;1255;22634;-48
2023/04/17 22:01:14;;;;;;;8.70;7.50;;;22.50;62.60;;;;;;222214;1255;22533;-47
2023/04/17 22:06:18;;;;;;;8.00;6.50;;;22.40;62.50;;;;;;221956;1254;22567;-55
2023/04/17 22:11:22;;;;;;;9.20;6.70;;;22.60;61.90;;;;;;222369;1263;24731;-47
2023/04/17 22:16:26;;;;;;;10.00;6.50;;;22.60;61.70;;;;;;222395;1260;22748;-47
2023/04/17 22:21:30;;;;;;;6.90;6.30;;;22.60;61.00;;;;;;222109;1257;22644;-47
2023/04/17 22:26:34;;;;;;;7.60;6.50;;;22.70;61.00;;;;;;222440;1264;22511;-47
2023/04/17 22:31:39;;;;;;;8.40;6.90;;;22.60;61.20;;;;;;222291;1248;22525;-47
2023/04/17 22:36:43;;;;;;;10.60;7.20;;;22.50;61.60;;;;;;222072;1257;25438;-45
2023/04/17 22:41:47;;;;;;;10.70;6.70;;;22.40;61.30;;;;;;222317;1254;22640;-46
2023/04/17 22:46:51;;;;;;;7.70;6.90;;;22.40;61.60;;;;;;222185;1257;22559;-47
2023/04/17 22:51:55;;;;;;;7.20;6.50;;;22.40;61.60;;;;;;222000;1259;22531;-46
2023/04/17 22:56:59;;;;;;;7.30;6.70;;;22.40;61.60;;;;;;222166;1254;22633;-46
2023/04/17 23:02:03;;;;;;;6.40;5.70;;;22.30;61.30;;;;;;222397;1260;22710;-47
2023/04/17 23:07:07;;;;;;;7.20;6.60;;;22.30;61.40;;;;;;222040;1261;22834;-46
2023/04/17 23:12:11;;;;;;;6.20;5.70;;;22.30;61.30;;;;;;223786;1260;25324;-47
2023/04/17 23:17:15;;;;;;;6.60;6.00;;;22.30;61.10;;;;;;222338;1247;24410;-45
2023/04/17 23:22:19;;;;;;;6.90;6.30;;;22.30;62.00;;;;;;222304;1257;22517;-44
2023/04/17 23:27:25;;;;;;;6.90;6.10;;;22.40;61.60;;;;;;222045;1255;22530;-47
2023/04/17 23:32:28;;;;;;;7.40;6.00;;;22.40;61.40;;;;;;221987;1263;24223;-50
2023/04/17 23:37:32;;;;;;;6.80;6.10;;;22.40;61.40;;;;;;221929;1254;22639;-46
2023/04/17 23:42:36;;;;;;;6.60;5.90;;;22.40;61.70;;;;;;222008;1259;22537;-49
2023/04/17 23:47:40;;;;;;;6.80;6.30;;;22.40;61.90;;;;;;222117;1263;22606;-46
2023/04/17 23:52:45;;;;;;;6.40;5.80;;;22.40;62.00;;;;;;222088;1263;22757;-46
2023/04/17 23:57:49;;;;;;;7.80;7.10;;;22.40;62.20;;;;;;222116;1263;25084;-50
